Time;durP1;ratioP1;P1;durP2;ratioP2;P2;SDS_P1;SDS_P2;PMS_P1;PMS_P2;Temp;Humidity;BMP_temperature;BMP_pressure;BME280_temperature;BME280_humidity;BME280_pressure;Samples;Min_cycle;Max_cycle;Signal;HPM_P1;HPM_P2
2021/12/07 00:02:24;;;;;;;20.80;12.48;;;;;;;0.57;100.00;100395.38;2595394;36;20499;-74
2021/12/07 00:04:53;;;;;;;21.88;12.90;;;;;;;0.54;100.00;100384.94;2595190;36;20066;-73
2021/12/07 00:07:21;;;;;;;22.95;14.52;;;;;;;0.58;100.00;100391.78;2595946;36;20126;-74
2021/12/07 00:09:59;;;;;;;21.75;13.77;;;;;;;0.62;100.00;100409.25;2592494;36;20053;-74
2021/12/07 00:12:33;;;;;;;22.10;14.77;;;;;;;0.55;100.00;100402.56;2594148;36;20046;-74
2021/12/07 00:15:03;;;;;;;21.83;12.90;;;;;;;0.78;100.00;100397.78;2594376;36;20085;-74
2021/12/07 00:17:33;;;;;;;22.38;13.52;;;;;;;0.75;100.00;100398.84;2594768;36;20062;-73
2021/12/07 00:20:02;;;;;;;22.73;13.75;;;;;;;0.67;100.00;100406.34;2593754;31;20484;-74
2021/12/07 00:22:30;;;;;;;;;;;;;;;0.74;100.00;100412.13;2594654;36;20034;-74
2021/12/07 00:25:01;;;;;;;18.67;11.75;;;;;;;0.73;100.00;100418.38;2593781;36;20580;-74
2021/12/07 00:27:29;;;;;;;21.95;13.13;;;;;;;0.77;100.00;100426.09;2592627;36;20121;-74
2021/12/07 00:29:58;;;;;;;18.92;11.68;;;;;;;0.73;100.00;100421.03;2595340;36;20143;-74
2021/12/07 00:32:31;;;;;;;20.05;12.27;;;;;;;0.77;100.00;100423.44;2601525;36;20065;-74
2021/12/07 00:35:20;;;;;;;19.02;11.75;;;;;;;0.76;100.00;100427.00;2596510;36;20042;-75
2021/12/07 00:37:51;;;;;;;19.40;11.15;;;;;;;0.73;100.00;100407.78;2593781;36;20057;-74
2021/12/07 00:40:26;;;;;;;20.60;12.90;;;;;;;0.67;100.00;100409.81;2595525;36;20570;-75
2021/12/07 00:42:54;;;;;;;22.02;11.80;;;;;;;0.72;100.00;100408.72;2595156;36;20063;-74
2021/12/07 00:45:25;;;;;;;20.55;12.02;;;;;;;0.67;100.00;100401.03;2597853;36;20207;-75
2021/12/07 00:47:55;;;;;;;20.67;12.35;;;;;;;0.72;100.00;100398.13;2601849;36;20035;-74
2021/12/07 00:50:27;;;;;;;19.42;11.75;;;;;;;0.69;100.00;100404.44;2595227;36;20790;-74
2021/12/07 00:52:56;;;;;;;21.00;13.20;;;;;;;0.57;100.00;100419.22;2599034;31;20168;-74
2021/12/07 00:55:30;;;;;;;23.02;14.85;;;;;;;0.53;100.00;100420.34;2595608;36;21435;-74
2021/12/07 00:58:00;;;;;;;20.75;13.73;;;;;;;0.55;100.00;100418.44;2596758;36;20447;-73
2021/12/07 01:00:30;;;;;;;20.60;13.13;;;;;;;0.61;100.00;100428.72;2597099;36;20129;-73
2021/12/07 01:02:58;;;;;;;23.92;13.55;;;;;;;0.64;100.00;100433.84;2598110;36;20575;-74
2021/12/07 01:05:32;;;;;;;23.08;13.55;;;;;;;0.60;100.00;100432.28;2597497;36;20142;-73
2021/12/07 01:08:21;;;;;;;24.45;13.98;;;;;;;0.65;100.00;100446.16;2596583;31;20570;-73
2021/12/07 01:27:03;;;;;;;29.50;16.67;;;;;;;1.05;100.00;100469.59;2606298;47;20105;-73
2021/12/07 01:29:31;;;;;;;27.90;15.88;;;;;;;1.07;100.00;100472.19;2597449;36;20041;-74
2021/12/07 01:32:10;;;;;;;29.17;16.55;;;;;;;1.00;100.00;100472.53;2597800;36;20602;-73
2021/12/07 01:35:14;;;;;;;26.08;14.75;;;;;;;0.99;100.00;100470.81;2602501;36;20046;-73
2021/12/07 01:37:55;;;;;;;29.63;16.65;;;;;;;1.05;100.00;100489.00;2597649;31;20071;-74
2021/12/07 01:51:30;;;;;;;34.28;17.38;;;;;;;1.07;100.00;100482.78;2594208;31;20629;-73
2021/12/07 01:59:38;;;;;;;33.05;16.77;;;;;;;1.05;100.00;100485.50;2599702;36;20133;-72
2021/12/07 02:02:09;;;;;;;31.58;17.83;;;;;;;1.00;100.00;100484.91;2593257;36;20600;-71
2021/12/07 02:04:38;;;;;;;33.95;17.17;;;;;;;0.96;100.00;100496.63;2603660;36;20042;-71
2021/12/07 02:09:43;;;;;;;32.63;17.13;;;;;;;0.97;100.00;100488.59;2604880;54;20034;-72
2021/12/07 02:12:13;;;;;;;33.80;17.63;;;;;;;0.81;100.00;100492.97;2597556;36;20034;-71
2021/12/07 02:14:45;;;;;;;33.30;17.85;;;;;;;0.93;100.00;100500.28;2597423;36;20055;-70
2021/12/07 02:17:21;;;;;;;34.60;17.63;;;;;;;0.96;100.00;100512.53;2598729;36;20041;-71
2021/12/07 02:19:49;;;;;;;35.05;18.15;;;;;;;0.98;100.00;100526.53;2595319;36;20492;-70
2021/12/07 02:22:20;;;;;;;31.27;16.45;;;;;;;1.15;100.00;100523.81;2596668;36;20741;-71
2021/12/07 02:24:49;;;;;;;33.80;17.00;;;;;;;1.03;100.00;100511.22;2595411;36;21289;-71
2021/12/07 02:27:17;;;;;;;39.30;18.65;;;;;;;1.08;100.00;100527.75;2594951;36;20663;-72
2021/12/07 02:30:08;;;;;;;32.38;16.75;;;;;;;1.03;100.00;100517.41;2597251;36;20151;-70
2021/12/07 02:32:36;;;;;;;32.72;18.10;;;;;;;0.92;100.00;100514.47;2599445;36;20157;-71
2021/12/07 02:35:05;;;;;;;32.53;17.10;;;;;;;0.96;100.00;100523.13;2594395;36;20035;-71
2021/12/07 02:37:37;;;;;;;37.08;18.23;;;;;;;1.06;100.00;100537.59;2595693;36;20037;-71
2021/12/07 02:40:09;;;;;;;33.97;18.00;;;;;;;1.08;100.00;100540.16;2594595;36;20070;-71
2021/12/07 02:42:37;;;;;;;32.33;16.77;;;;;;;1.00;100.00;100541.41;2594157;36;20794;-71
2021/12/07 02:45:07;;;;;;;36.45;19.85;;;;;;;1.01;100.00;100547.56;2599172;36;20126;-72
2021/12/07 02:47:36;;;;;;;38.90;18.63;;;;;;;0.93;100.00;100549.75;2596085;36;20062;-71
2021/12/07 02:50:05;;;;;;;38.60;18.67;;;;;;;0.83;100.00;100554.72;2601648;36;20705;-71
2021/12/07 02:52:36;;;;;;;38.58;18.95;;;;;;;0.77;100.00;100557.69;2596890;31;20125;-72
2021/12/07 02:55:08;;;;;;;37.70;19.60;;;;;;;0.76;100.00;100554.16;2594812;36;20053;-71
2021/12/07 02:57:42;;;;;;;38.83;18.90;;;;;;;0.75;100.00;100556.91;2597259;36;20034;-71
2021/12/07 03:00:22;;;;;;;33.80;17.98;;;;;;;0.80;100.00;100563.66;2594318;36;20035;-70
2021/12/07 03:02:56;;;;;;;38.75;19.42;;;;;;;0.75;100.00;100568.38;2596687;36;20043;-72
2021/12/07 03:05:38;;;;;;;44.17;21.10;;;;;;;0.62;100.00;100568.16;2595770;36;20035;-71
2021/12/07 03:27:15;;;;;;;47.92;20.20;;;;;;;0.69;100.00;100588.09;2595998;36;20038;-72
2021/12/07 03:29:43;;;;;;;42.27;20.03;;;;;;;0.64;100.00;100582.16;2596315;36;20080;-71
2021/12/07 03:32:13;;;;;;;44.67;20.65;;;;;;;0.80;100.00;100594.63;2596402;36;20402;-72
2021/12/07 03:34:41;;;;;;;48.13;23.08;;;;;;;0.76;100.00;100590.41;2597061;36;20057;-73
2021/12/07 03:37:17;;;;;;;47.67;21.47;;;;;;;0.68;100.00;100581.06;2598339;36;20058;-72
2021/12/07 03:40:12;;;;;;;44.25;19.40;;;;;;;0.69;100.00;100588.09;2597616;36;20311;-73
2021/12/07 03:45:31;;;;;;;58.40;20.98;;;;;;;0.69;100.00;100585.44;2595339;36;20035;-71
2021/12/07 03:48:11;;;;;;;48.53;21.30;;;;;;;0.54;100.00;100601.25;2603524;36;21640;-72
2021/12/07 03:50:42;;;;;;;43.08;20.85;;;;;;;0.64;100.00;100602.50;2597509;36;20060;-72
2021/12/07 03:53:14;;;;;;;45.20;19.92;;;;;;;0.59;100.00;100601.84;2596661;36;20062;-72
2021/12/07 03:55:49;;;;;;;50.70;20.95;;;;;;;0.66;100.00;100622.69;2602874;36;20167;-73
2021/12/07 03:58:17;;;;;;;50.80;20.40;;;;;;;0.51;100.00;100623.44;2597765;36;20488;-74
2021/12/07 04:01:01;;;;;;;55.65;21.95;;;;;;;0.45;100.00;100627.25;2598094;36;20479;-70
2021/12/07 04:03:38;;;;;;;54.92;22.48;;;;;;;0.49;100.00;100630.63;2599005;36;20765;-73
2021/12/07 04:06:44;;;;;;;43.83;19.75;;;;;;;0.68;100.00;100627.91;2603289;31;20433;-73
2021/12/07 04:09:12;;;;;;;50.90;20.52;;;;;;;0.68;100.00;100641.13;2596396;36;20062;-72
2021/12/07 04:11:43;;;;;;;44.97;19.70;;;;;;;0.56;100.00;100632.03;2599287;36;20058;-72
2021/12/07 04:14:38;;;;;;;46.17;19.50;;;;;;;0.66;100.00;100649.16;2598246;31;20513;-71
2021/12/07 04:17:07;;;;;;;51.00;20.65;;;;;;;0.58;100.00;100639.91;2596349;36;20951;-71
2021/12/07 04:19:35;;;;;;;48.90;20.48;;;;;;;0.60;100.00;100636.22;2595639;36;20034;-71
2021/12/07 04:22:06;;;;;;;52.70;19.90;;;;;;;0.49;100.00;100635.91;2597118;36;20603;-71
2021/12/07 04:25:16;;;;;;;46.95;18.70;;;;;;;0.63;100.00;100638.72;2596576;31;20938;-72
2021/12/07 04:31:03;;;;;;;44.65;19.27;;;;;;;0.54;100.00;100633.03;2619037;31;20159;-71
2021/12/07 04:36:25;;;;;;;53.58;20.83;;;;;;;0.74;100.00;100645.25;2598091;36;20045;-72
2021/12/07 04:41:57;;;;;;;48.92;18.95;;;;;;;0.62;100.00;100649.38;2595780;31;20031;-72
2021/12/07 04:44:26;;;;;;;46.50;18.52;;;;;;;0.59;100.00;100653.06;2600061;36;20042;-72
2021/12/07 04:50:16;;;;;;;34.30;15.73;;;;;;;0.49;100.00;100673.00;2609146;47;20357;-71
2021/12/07 04:58:08;;;;;;;37.42;15.02;;;;;;;0.69;100.00;100664.91;2599756;31;20046;-73
2021/12/07 05:00:36;;;;;;;30.90;14.18;;;;;;;0.96;100.00;100672.38;2596405;36;20065;-72
2021/12/07 05:03:11;;;;;;;39.83;16.30;;;;;;;1.11;100.00;100683.13;2596688;36;20693;-73
2021/12/07 05:05:44;;;;;;;44.50;15.70;;;;;;;1.10;100.00;100684.88;2596126;36;20046;-73
2021/12/07 05:08:53;;;;;;;45.03;15.00;;;;;;;0.94;100.00;100676.03;2596690;31;20030;-73
2021/12/07 05:14:17;;;;;;;40.05;14.65;;;;;;;0.93;100.00;100683.13;2595304;36;20038;-72
2021/12/07 05:16:55;;;;;;;43.95;15.00;;;;;;;0.93;100.00;100685.78;2599858;36;20038;-72
2021/12/07 05:26:00;;;;;;;39.08;13.77;;;;;;;0.72;100.00;100710.69;2600976;36;20046;-72
2021/12/07 05:39:29;;;;;;;37.50;12.90;;;;;;;0.61;100.00;100729.78;2600683;36;20035;-72
2021/12/07 05:42:22;;;;;;;31.20;11.77;;;;;;;0.66;100.00;100741.88;2598249;36;20034;-74
2021/12/07 05:44:51;;;;;;;27.67;11.20;;;;;;;0.56;100.00;100726.50;2614907;36;20042;-71
2021/12/07 05:47:22;;;;;;;29.52;10.13;;;;;;;0.67;100.00;100735.63;2594886;36;20039;-73
2021/12/07 05:53:23;;;;;;;31.55;9.73;;;;;;;0.69;100.00;100744.38;2610971;36;20034;-72
2021/12/07 05:56:01;;;;;;;26.40;9.52;;;;;;;0.61;100.00;100730.63;2595021;36;20041;-73
2021/12/07 05:58:31;;;;;;;29.73;9.60;;;;;;;0.65;100.00;100742.78;2596799;36;20459;-70
2021/12/07 06:03:52;;;;;;;18.45;8.60;;;;;;;0.57;100.00;100733.50;2597959;36;20720;-71
2021/12/07 06:09:54;;;;;;;24.95;7.95;;;;;;;0.64;100.00;100746.38;2594418;36;20026;-72
2021/12/07 06:12:25;;;;;;;26.95;7.13;;;;;;;0.78;100.00;100758.06;2592750;31;20034;-71
2021/12/07 06:14:55;;;;;;;23.25;6.60;;;;;;;0.93;100.00;100759.97;2597051;36;20722;-71
2021/12/07 06:17:24;;;;;;;20.73;7.53;;;;;;;0.98;100.00;100752.63;2593407;36;20064;-72
2021/12/07 06:19:52;;;;;;;20.98;7.22;;;;;;;1.02;100.00;100756.84;2598999;36;20086;-71
2021/12/07 06:22:20;;;;;;;17.90;7.33;;;;;;;1.02;100.00;100756.84;2595011;36;20194;-71
2021/12/07 06:24:49;;;;;;;17.88;6.32;;;;;;;0.99;100.00;100766.75;2596047;36;20130;-72
2021/12/07 06:27:17;;;;;;;22.52;6.65;;;;;;;1.17;100.00;100775.56;2603070;36;20578;-74
2021/12/07 06:29:48;;;;;;;23.75;6.65;;;;;;;1.16;100.00;100774.72;2593677;36;20641;-72
2021/12/07 06:32:16;;;;;;;23.13;6.47;;;;;;;1.18;100.00;100787.91;2597685;36;20863;-72
2021/12/07 06:34:44;;;;;;;26.83;7.22;;;;;;;1.14;100.00;100781.03;2596019;36;20038;-71
2021/12/07 06:37:13;;;;;;;22.58;7.38;;;;;;;1.18;100.00;100777.31;2597107;36;20525;-72
2021/12/07 06:39:41;;;;;;;24.92;6.47;;;;;;;1.37;100.00;100793.09;2600790;36;20168;-71
2021/12/07 06:42:09;;;;;;;24.67;7.63;;;;;;;1.33;100.00;100789.75;2594993;36;20088;-71
2021/12/07 06:44:37;;;;;;;18.67;6.40;;;;;;;1.28;100.00;100783.84;2598968;36;20126;-72
2021/12/07 06:47:08;;;;;;;16.73;6.60;;;;;;;1.29;100.00;100785.53;2599827;36;20070;-72
2021/12/07 06:52:36;;;;;;;17.40;6.60;;;;;;;1.30;100.00;100776.66;2601749;31;20030;-73
2021/12/07 06:55:07;;;;;;;22.02;8.23;;;;;;;1.46;100.00;100786.47;2599591;31;20042;-71
2021/12/07 06:57:35;;;;;;;25.20;7.30;;;;;;;1.60;100.00;100772.50;2597795;36;20133;-71
2021/12/07 07:00:05;;;;;;;19.67;7.25;;;;;;;1.51;100.00;100780.00;2599716;36;20559;-72
2021/12/07 07:02:36;;;;;;;26.52;7.05;;;;;;;1.54;100.00;100778.97;2597213;36;20054;-72
2021/12/07 07:05:06;;;;;;;24.25;7.95;;;;;;;1.47;100.00;100782.88;2597680;36;20054;-71
2021/12/07 07:07:34;;;;;;;;;;;;;;;1.47;100.00;100786.38;2596208;36;20178;-72
2021/12/07 07:10:03;;;;;;;25.15;7.70;;;;;;;1.46;100.00;100782.03;2595644;36;19947;-72
2021/12/07 07:12:31;;;;;;;24.63;8.00;;;;;;;1.40;100.00;100788.50;2598637;36;20035;-72
2021/12/07 07:14:59;;;;;;;26.08;8.50;;;;;;;1.35;100.00;100787.88;2596714;31;20062;-72
2021/12/07 07:17:28;;;;;;;34.72;9.65;;;;;;;1.29;100.00;100782.03;2596129;36;20034;-73
2021/12/07 07:19:59;;;;;;;25.77;8.00;;;;;;;1.23;100.00;100785.88;2598265;36;20184;-71
2021/12/07 07:22:27;;;;;;;18.77;8.13;;;;;;;1.29;100.00;100784.69;2603510;36;20046;-70
2021/12/07 07:24:55;;;;;;;28.52;8.73;;;;;;;1.21;100.00;100787.75;2609823;36;20034;-71
2021/12/07 07:27:24;;;;;;;36.92;10.27;;;;;;;1.35;100.00;100792.34;2610767;36;20118;-71
2021/12/07 07:29:52;;;;;;;34.65;10.23;;;;;;;1.42;100.00;100800.84;2606350;36;20594;-71
2021/12/07 07:32:20;;;;;;;28.60;9.93;;;;;;;1.44;100.00;100799.81;2602946;36;20034;-71
2021/12/07 07:34:49;;;;;;;31.77;10.85;;;;;;;1.35;100.00;100801.13;2612909;47;20137;-72
2021/12/07 07:37:20;;;;;;;28.80;11.02;;;;;;;1.37;100.00;100801.94;2610374;31;20166;-72
2021/12/07 07:39:48;;;;;;;38.28;10.10;;;;;;;1.37;100.00;100798.41;2611917;36;20038;-72
2021/12/07 07:42:17;;;;;;;34.08;10.00;;;;;;;1.21;100.00;100790.41;2610964;36;20038;-74
2021/12/07 07:44:45;;;;;;;26.35;10.85;;;;;;;1.25;100.00;100794.59;2610017;36;20160;-72
2021/12/07 07:47:13;;;;;;;28.52;11.07;;;;;;;1.25;100.00;100794.59;2611673;36;20630;-73
2021/12/07 07:49:41;;;;;;;28.92;11.52;;;;;;;1.37;100.00;100793.97;2610195;36;20156;-74
2021/12/07 07:52:13;;;;;;;30.13;11.67;;;;;;;1.46;100.00;100802.38;2607664;36;20187;-72
2021/12/07 07:54:45;;;;;;;44.97;13.50;;;;;;;1.37;100.00;100798.41;2609754;36;20147;-72
2021/12/07 07:57:17;;;;;;;26.88;12.15;;;;;;;1.50;100.00;100795.97;2608721;36;20125;-72
2021/12/07 07:59:45;;;;;;;37.33;11.18;;;;;;;1.56;100.00;100798.31;2609109;36;20598;-72
2021/12/07 08:02:13;;;;;;;30.80;12.13;;;;;;;1.52;100.00;100796.78;2609320;31;20167;-72
2021/12/07 08:04:42;;;;;;;34.13;11.10;;;;;;;1.49;100.00;100794.28;2611186;36;20593;-73
2021/12/07 08:07:10;;;;;;;30.13;11.32;;;;;;;1.51;100.00;100795.06;2610560;31;20603;-72
2021/12/07 08:09:38;;;;;;;30.25;10.45;;;;;;;1.52;100.00;100791.47;2611312;36;20058;-72
2021/12/07 08:12:10;;;;;;;30.88;10.95;;;;;;;1.43;100.00;100784.84;2609926;36;20687;-72
2021/12/07 08:14:38;;;;;;;35.80;12.50;;;;;;;1.57;100.00;100789.44;2609702;36;20138;-71
2021/12/07 08:17:07;;;;;;;26.13;12.25;;;;;;;1.58;100.00;100799.09;2611096;36;20038;-73
2021/12/07 08:19:36;;;;;;;29.60;11.83;;;;;;;1.65;100.00;100795.19;2614379;36;20065;-73
2021/12/07 08:22:04;;;;;;;42.25;12.93;;;;;;;1.62;100.00;100787.41;2613915;36;20429;-72
2021/12/07 08:24:33;;;;;;;31.90;12.18;;;;;;;1.59;100.00;100787.56;2612964;36;20604;-72
2021/12/07 08:27:01;;;;;;;42.13;12.88;;;;;;;1.60;100.00;100789.25;2611226;36;20167;-71
2021/12/07 08:29:32;;;;;;;26.90;11.02;;;;;;;1.65;100.00;100787.25;2610425;36;20114;-73
2021/12/07 08:32:00;;;;;;;32.13;12.50;;;;;;;1.65;100.00;100795.19;2610873;36;20090;-73
2021/12/07 08:34:29;;;;;;;44.03;12.20;;;;;;;1.66;100.00;100799.53;2610183;36;20058;-74
2021/12/07 08:36:57;;;;;;;33.92;11.85;;;;;;;1.75;100.00;100804.41;2611111;36;20209;-75
2021/12/07 08:39:25;;;;;;;39.58;12.90;;;;;;;1.70;100.00;100810.88;2611569;36;20122;-72
2021/12/07 08:41:54;;;;;;;33.10;12.10;;;;;;;1.74;100.00;100815.94;2609745;36;20057;-74
2021/12/07 08:44:22;;;;;;;37.83;13.63;;;;;;;1.75;100.00;100820.31;2610468;31;20651;-71
2021/12/07 08:46:53;;;;;;;30.30;12.18;;;;;;;1.73;100.00;100816.88;2609220;36;20133;-71
2021/12/07 08:49:21;;;;;;;35.53;12.95;;;;;;;1.80;100.00;100816.56;2610072;36;20059;-73
2021/12/07 08:51:50;;;;;;;32.67;12.67;;;;;;;1.88;100.00;100827.63;2609686;36;20054;-72
2021/12/07 08:54:34;;;;;;;28.77;12.93;;;;;;;1.88;100.00;100820.50;2609467;36;20121;-72
2021/12/07 08:59:46;;;;;;;46.78;13.80;;;;;;;1.96;100.00;100812.16;2611147;36;20030;-72
2021/12/07 09:02:20;;;;;;;36.85;13.60;;;;;;;2.04;100.00;100820.53;2610737;36;20099;-72
2021/12/07 09:04:49;;;;;;;32.75;12.07;;;;;;;2.09;100.00;100820.28;2610934;36;20157;-72
2021/12/07 09:07:18;;;;;;;;;;;;;;;2.05;100.00;100811.66;2610996;31;20077;-72
2021/12/07 09:09:46;;;;;;;40.97;13.15;;;;;;;2.07;100.00;100814.22;2610432;36;19981;-73
2021/12/07 09:12:17;;;;;;;33.95;13.35;;;;;;;2.06;100.00;100813.38;2610044;36;20562;-73
2021/12/07 09:14:46;;;;;;;38.63;13.65;;;;;;;2.04;100.00;100812.59;2610887;36;20495;-72
2021/12/07 09:17:17;;;;;;;34.97;13.75;;;;;;;2.14;100.00;100806.81;2609297;36;20061;-72
2021/12/07 09:19:46;;;;;;;27.00;13.10;;;;;;;2.19;100.00;100812.69;2610375;36;20480;-73
2021/12/07 09:22:14;;;;;;;37.65;13.48;;;;;;;2.19;100.00;100808.25;2609474;36;20507;-72
2021/12/07 09:24:43;;;;;;;26.60;13.63;;;;;;;2.25;100.00;100812.38;2610740;31;20057;-72
2021/12/07 09:27:11;;;;;;;29.38;13.27;;;;;;;2.26;100.00;100814.09;2610294;36;20479;-72
2021/12/07 09:40:03;;;;;;;32.95;14.10;;;;;;;2.49;100.00;100823.44;2609988;54;20038;-74
2021/12/07 09:42:31;;;;;;;28.73;12.75;;;;;;;2.51;100.00;100832.19;2610508;36;20061;-74
2021/12/07 09:45:00;;;;;;;32.95;14.23;;;;;;;2.58;100.00;100825.59;2609993;36;20069;-72
2021/12/07 09:47:28;;;;;;;28.08;13.07;;;;;;;2.58;100.00;100835.38;2610036;36;20039;-72
2021/12/07 09:49:57;;;;;;;25.75;12.10;;;;;;;2.63;100.00;100842.16;2610326;36;20133;-72
2021/12/07 09:52:25;;;;;;;32.83;12.43;;;;;;;2.72;100.00;100843.41;2608682;36;20446;-72
2021/12/07 09:57:32;;;;;;;27.17;11.00;;;;;;;2.73;100.00;100837.16;2610687;36;20125;-75
2021/12/07 10:00:00;;;;;;;29.15;11.48;;;;;;;2.84;100.00;100835.69;2611186;36;20662;-74
2021/12/07 10:02:29;;;;;;;29.05;11.25;;;;;;;2.86;100.00;100847.13;2610644;31;20552;-71
2021/12/07 10:04:59;;;;;;;28.25;10.45;;;;;;;2.90;100.00;100840.66;2610588;36;20039;-70
2021/12/07 10:07:27;;;;;;;28.63;10.77;;;;;;;2.94;100.00;100836.88;2610901;36;20088;-71
2021/12/07 10:09:55;;;;;;;26.10;10.52;;;;;;;2.95;100.00;100838.59;2610148;31;20170;-70
2021/12/07 10:12:27;;;;;;;26.40;9.55;;;;;;;3.07;100.00;100842.38;2610276;36;20181;-71
2021/12/07 10:15:07;;;;;;;28.83;9.20;;;;;;;3.03;100.00;100835.50;2610298;36;20030;-72
2021/12/07 10:17:38;;;;;;;24.77;9.70;;;;;;;3.06;100.00;100828.22;2610791;36;20080;-72
2021/12/07 10:20:25;;;;;;;26.67;9.10;;;;;;;3.14;100.00;100828.63;2610834;36;20045;-72
2021/12/07 10:22:55;;;;;;;21.05;9.57;;;;;;;3.20;100.00;100831.88;2609684;36;20038;-73
2021/12/07 10:25:31;;;;;;;20.95;9.43;;;;;;;3.18;100.00;100831.09;2611403;36;20041;-72
2021/12/07 10:28:00;;;;;;;25.50;9.30;;;;;;;3.26;100.00;100831.50;2610891;36;20057;-72
2021/12/07 10:30:31;;;;;;;29.88;11.25;;;;;;;3.35;100.00;100820.31;2611641;36;20453;-72
2021/12/07 10:33:04;;;;;;;24.85;8.77;;;;;;;3.31;100.00;100824.09;2610686;36;20125;-72
2021/12/07 10:35:34;;;;;;;28.55;9.65;;;;;;;3.39;100.00;100813.88;2611220;36;20030;-74
2021/12/07 10:38:12;;;;;;;27.23;8.98;;;;;;;3.41;100.00;100809.31;2610548;36;20098;-73
2021/12/07 10:40:56;;;;;;;28.25;9.95;;;;;;;3.45;100.00;100805.53;2611025;36;20042;-73
2021/12/07 10:43:47;;;;;;;28.05;10.13;;;;;;;3.62;100.00;100803.66;2611110;36;20065;-73
2021/12/07 10:46:48;;;;;;;26.27;9.35;;;;;;;3.83;100.00;100794.38;2611195;36;20507;-74
2021/12/07 10:49:29;;;;;;;26.40;10.05;;;;;;;3.85;100.00;100792.47;2608633;36;20045;-73
2021/12/07 10:52:05;;;;;;;15.57;8.77;;;;;;;3.93;100.00;100788.47;2610583;36;20038;-74
2021/12/07 10:54:35;;;;;;;24.40;9.40;;;;;;;3.93;100.00;100785.81;2611010;31;20036;-73
2021/12/07 10:57:06;;;;;;;25.25;9.10;;;;;;;3.96;100.00;100788.28;2610388;36;20076;-74
2021/12/07 10:59:35;;;;;;;21.23;9.57;;;;;;;4.06;100.00;100786.75;2611874;31;20480;-74
2021/12/07 11:04:36;;;;;;;24.55;10.15;;;;;;;4.14;100.00;100779.16;2611803;36;20477;-73
2021/12/07 11:07:11;;;;;;;22.48;9.40;;;;;;;4.15;100.00;100767.53;2612075;36;20039;-74
2021/12/07 11:09:41;;;;;;;23.50;9.63;;;;;;;4.10;100.00;100764.31;2627553;36;20031;-73
2021/12/07 11:12:11;;;;;;;26.63;11.00;;;;;;;4.01;100.00;100757.75;2609590;36;20602;-73
2021/12/07 11:14:48;;;;;;;23.13;10.30;;;;;;;4.10;100.00;100752.81;2608663;36;20167;-75
2021/12/07 11:17:22;;;;;;;25.17;10.48;;;;;;;4.06;100.00;100757.44;2609213;36;20069;-75
2021/12/07 11:33:56;;;;;;;27.77;11.05;;;;;;;4.35;100.00;100736.09;2611359;54;20034;-75
2021/12/07 11:36:33;;;;;;;19.13;9.80;;;;;;;4.31;100.00;100738.09;2611477;36;20065;-74
2021/12/07 11:39:03;;;;;;;22.10;9.60;;;;;;;4.36;100.00;100729.84;2610880;36;20038;-73
2021/12/07 11:41:34;;;;;;;26.10;10.07;;;;;;;4.27;100.00;100733.06;2610508;36;20042;-74
2021/12/07 11:44:05;;;;;;;27.30;10.68;;;;;;;4.38;100.00;100725.25;2609650;36;20581;-75
2021/12/07 11:46:36;;;;;;;21.02;9.60;;;;;;;4.37;100.00;100719.06;2610492;36;20628;-75
2021/12/07 11:49:15;;;;;;;27.35;10.73;;;;;;;4.42;100.00;100718.75;2610824;36;20074;-73
2021/12/07 11:51:49;;;;;;;26.67;9.82;;;;;;;4.52;100.00;100722.53;2609273;36;20084;-75
2021/12/07 11:54:19;;;;;;;26.65;10.30;;;;;;;4.46;100.00;100711.41;2609697;36;20126;-74
2021/12/07 11:56:50;;;;;;;22.55;11.27;;;;;;;4.60;100.00;100708.69;2609448;36;20126;-75
2021/12/07 11:59:19;;;;;;;22.38;11.73;;;;;;;4.44;100.00;100700.84;2610281;36;20146;-74
2021/12/07 12:01:49;;;;;;;32.15;10.93;;;;;;;4.53;100.00;100688.72;2607994;36;20045;-74
2021/12/07 12:04:20;;;;;;;24.95;10.77;;;;;;;4.61;100.00;100690.88;2610525;36;20898;-73
2021/12/07 12:06:54;;;;;;;25.45;10.80;;;;;;;4.61;100.00;100699.75;2609683;36;20082;-72
2021/12/07 12:09:24;;;;;;;33.10;11.65;;;;;;;4.59;100.00;100696.31;2610083;36;20157;-73
2021/12/07 12:12:01;;;;;;;25.25;10.52;;;;;;;4.65;100.00;100695.06;2610585;36;20037;-74
2021/12/07 12:14:41;;;;;;;30.38;12.05;;;;;;;4.75;100.00;100693.50;2610764;36;20161;-73
2021/12/07 12:17:14;;;;;;;38.55;11.93;;;;;;;4.70;100.00;100679.63;2608571;36;20030;-73
2021/12/07 12:19:51;;;;;;;29.60;11.20;;;;;;;4.87;100.00;100678.47;2608561;36;20145;-72
2021/12/07 12:22:32;;;;;;;34.40;12.38;;;;;;;4.86;100.00;100669.63;2610960;31;20472;-73
2021/12/07 12:25:03;;;;;;;29.45;10.82;;;;;;;4.79;100.00;100664.84;2610027;36;20724;-73
2021/12/07 12:27:34;;;;;;;37.53;14.05;;;;;;;4.80;100.00;100667.41;2609352;36;20141;-73
2021/12/07 12:30:07;;;;;;;30.15;11.60;;;;;;;4.79;100.00;100649.69;2609408;36;20041;-72
2021/12/07 12:32:38;;;;;;;35.63;12.43;;;;;;;4.76;100.00;100644.56;2608786;36;20651;-73
2021/12/07 12:35:10;;;;;;;32.53;12.02;;;;;;;4.79;100.00;100639.00;2609670;36;20031;-74
2021/12/07 12:37:47;;;;;;;25.15;10.18;;;;;;;4.74;100.00;100630.44;2609625;36;20057;-73
2021/12/07 12:40:23;;;;;;;21.25;9.80;;;;;;;4.74;100.00;100630.44;2609314;36;20089;-73
2021/12/07 12:42:54;;;;;;;29.05;11.27;;;;;;;4.74;100.00;100619.78;2609673;36;20030;-72
2021/12/07 12:45:28;;;;;;;30.77;11.45;;;;;;;4.68;100.00;100609.53;2607628;36;20038;-72
2021/12/07 12:47:59;;;;;;;28.23;12.70;;;;;;;4.62;100.00;100613.47;2608966;31;20221;-72
2021/12/07 12:50:32;;;;;;;20.42;10.75;;;;;;;4.57;100.00;100605.81;2606969;36;20060;-72
2021/12/07 12:53:06;;;;;;;32.70;12.23;;;;;;;4.49;100.00;100610.81;2609946;36;20447;-71
2021/12/07 12:55:40;;;;;;;40.75;13.43;;;;;;;4.53;100.00;100607.00;2609064;36;20185;-72
2021/12/07 12:58:16;;;;;;;31.33;13.38;;;;;;;4.59;100.00;100610.19;2609234;36;20118;-71
2021/12/07 13:01:02;;;;;;;26.48;12.63;;;;;;;4.52;100.00;100612.38;2608793;36;20035;-73
2021/12/07 13:03:48;;;;;;;30.48;13.45;;;;;;;4.55;100.00;100605.06;2610675;36;20069;-72
2021/12/07 13:06:19;;;;;;;32.42;13.85;;;;;;;4.46;100.00;100597.69;2608550;36;20070;-71
2021/12/07 13:08:57;;;;;;;26.80;12.43;;;;;;;4.47;100.00;100590.53;2607797;36;20149;-71
2021/12/07 13:11:39;;;;;;;26.93;12.80;;;;;;;4.42;100.00;100582.88;2608060;36;20168;-71
2021/12/07 13:14:12;;;;;;;22.17;10.98;;;;;;;4.46;100.00;100587.03;2609290;36;20682;-72
2021/12/07 13:16:49;;;;;;;24.88;12.20;;;;;;;4.44;100.00;100585.44;2608578;36;20118;-72
2021/12/07 13:19:17;;;;;;;27.27;11.15;;;;;;;4.34;100.00;100577.19;2610576;36;20064;-73
2021/12/07 13:21:47;;;;;;;21.65;9.25;;;;;;;4.33;100.00;100567.50;2609149;36;20157;-72
2021/12/07 13:24:21;;;;;;;26.83;9.30;;;;;;;4.29;100.00;100566.00;2609363;36;20070;-72
2021/12/07 13:26:54;;;;;;;25.27;9.73;;;;;;;4.26;100.00;100559.06;2609545;36;20034;-72
2021/12/07 13:29:24;;;;;;;26.98;10.35;;;;;;;4.35;100.00;100553.09;2607743;36;20059;-72
2021/12/07 13:32:02;;;;;;;18.63;9.20;;;;;;;4.26;100.00;100543.06;2610318;36;20151;-71
2021/12/07 13:34:34;;;;;;;21.77;9.40;;;;;;;4.28;100.00;100545.63;2609574;36;20069;-74
2021/12/07 13:37:05;;;;;;;23.95;10.50;;;;;;;4.21;100.00;100538.06;2609353;36;20895;-73
2021/12/07 13:39:47;;;;;;;22.30;10.43;;;;;;;4.30;100.00;100530.38;2607477;36;20035;-72
2021/12/07 13:42:30;;;;;;;16.98;8.63;;;;;;;4.21;100.00;100532.72;2610513;36;20066;-73
2021/12/07 13:45:06;;;;;;;20.73;9.23;;;;;;;4.18;100.00;100522.28;2608876;36;20059;-72
2021/12/07 13:47:36;;;;;;;30.67;9.75;;;;;;;4.17;100.00;100515.25;2609337;36;20063;-72
2021/12/07 13:50:12;;;;;;;20.42;8.30;;;;;;;4.14;100.00;100510.13;2610260;36;20570;-72
2021/12/07 13:52:44;;;;;;;17.15;7.70;;;;;;;4.08;100.00;100501.69;2610101;36;20616;-72
2021/12/07 13:55:25;;;;;;;24.50;9.10;;;;;;;4.08;100.00;100489.22;2609644;36;20569;-72
2021/12/07 13:57:55;;;;;;;19.38;8.32;;;;;;;4.10;100.00;100487.31;2610372;36;20054;-72